Time;durP1;ratioP1;P1;durP2;ratioP2;P2;SDS_P1;SDS_P2;PMS_P1;PMS_P2;Temp;Humidity;BMP_temperature;BMP_pressure;BME280_temperature;BME280_humidity;BME280_pressure;Samples;Min_cycle;Max_cycle;Signal;HPM_P1;HPM_P2
2023/11/12 00:00:43;;;;;;;2.30;2.00;;;;;;;3.79;100.00;152336.22;4992368;28;20458;-86
2023/11/12 00:03:09;;;;;;;2.97;2.00;;;;;;;3.82;100.00;152345.25;4994124;28;20453;-86
2023/11/12 00:05:37;;;;;;;3.43;2.47;;;;;;;3.84;100.00;152349.16;4994508;28;20979;-86
2023/11/12 00:08:04;;;;;;;2.77;2.30;;;;;;;3.85;100.00;152351.69;4972706;28;20455;-86
2023/11/12 00:10:31;;;;;;;2.23;1.80;;;;;;;3.86;100.00;152354.28;4971219;28;20476;-86
2023/11/12 00:12:57;;;;;;;2.83;2.10;;;;;;;3.87;100.00;152356.81;5009237;28;20542;-86
2023/11/12 00:15:24;;;;;;;3.40;2.20;;;;;;;3.86;100.00;152355.56;4994236;28;20846;-86
2023/11/12 00:17:50;;;;;;;2.33;2.03;;;;;;;3.86;100.00;152354.28;4975971;28;20453;-85
2023/11/12 00:20:17;;;;;;;2.63;2.20;;;;;;;3.86;100.00;152355.56;4972858;28;20923;-85
2023/11/12 00:22:46;;;;;;;3.00;2.03;;;;;;;3.86;100.00;152355.56;4971531;28;20866;-86
2023/11/12 00:25:13;;;;;;;2.63;1.90;;;;;;;3.88;100.00;152359.44;4989817;28;20457;-86
2023/11/12 00:27:39;;;;;;;2.77;2.07;;;;;;;3.87;100.00;152358.13;4970233;28;20483;-86
2023/11/12 00:30:08;;;;;;;2.50;2.00;;;;;;;3.88;100.00;152360.72;4970683;28;20449;-86
2023/11/12 00:32:34;;;;;;;2.47;1.90;;;;;;;3.87;100.00;152356.81;4985799;28;20449;-86
2023/11/12 00:35:01;;;;;;;2.87;1.93;;;;;;;3.88;100.00;152360.72;4983970;28;20562;-86
2023/11/12 00:37:28;;;;;;;3.43;2.80;;;;;;;3.89;100.00;152362.00;4971556;28;20461;-86
2023/11/12 00:39:56;;;;;;;2.57;1.90;;;;;;;3.91;100.00;152367.16;4972129;28;20476;-86
2023/11/12 00:42:23;;;;;;;2.60;2.20;;;;;;;3.92;100.00;152369.75;4986836;28;20985;-86
2023/11/12 00:44:49;;;;;;;3.17;2.13;;;;;;;3.94;100.00;152374.88;4989023;28;20544;-86
2023/11/12 00:47:16;;;;;;;1.90;1.60;;;;;;;3.97;100.00;152382.63;4985802;28;20460;-86
2023/11/12 00:49:42;;;;;;;2.73;2.07;;;;;;;3.98;100.00;152385.16;4992938;28;20472;-86
2023/11/12 00:52:09;;;;;;;1.83;1.63;;;;;;;3.99;100.00;152387.75;4962730;28;20465;-85
2023/11/12 00:54:36;;;;;;;3.00;2.40;;;;;;;4.01;100.00;152394.19;5010006;28;20493;-86
2023/11/12 00:57:04;;;;;;;3.10;2.10;;;;;;;4.04;100.00;152400.63;4992009;28;20487;-85
2023/11/12 00:59:31;;;;;;;3.10;2.30;;;;;;;4.03;100.00;152398.03;4967633;28;20441;-86
2023/11/12 01:01:58;;;;;;;1.73;1.63;;;;;;;4.03;100.00;152399.34;4968452;28;20956;-86
2023/11/12 01:04:27;;;;;;;4.10;2.43;;;;;;;4.06;100.00;152407.06;4983790;28;20449;-86
2023/11/12 01:06:53;;;;;;;3.67;2.10;;;;;;;4.08;100.00;152410.91;4954776;28;20540;-86
2023/11/12 01:09:20;;;;;;;2.70;2.00;;;;;;;4.10;100.00;152416.09;4971432;28;20470;-86
2023/11/12 01:11:47;;;;;;;3.80;2.00;;;;;;;4.11;100.00;152418.66;4986023;28;20523;-86
2023/11/12 01:14:16;;;;;;;2.60;2.00;;;;;;;4.12;100.00;152422.53;4990148;28;20450;-86
2023/11/12 01:16:43;;;;;;;2.53;2.33;;;;;;;4.13;100.00;152423.84;4973415;28;20446;-86
2023/11/12 01:19:09;;;;;;;2.10;1.63;;;;;;;4.15;100.00;152428.97;4973464;28;20455;-86
2023/11/12 01:21:36;;;;;;;2.60;2.00;;;;;;;4.16;100.00;152431.53;4965672;28;20834;-86
2023/11/12 01:24:03;;;;;;;2.30;1.77;;;;;;;4.17;100.00;152435.41;4971358;28;20461;-86
2023/11/12 01:26:30;;;;;;;2.20;1.70;;;;;;;4.20;100.00;152443.16;4951847;28;20966;-86
2023/11/12 01:28:57;;;;;;;3.90;1.97;;;;;;;4.21;100.00;152445.69;4969288;28;20453;-86
2023/11/12 01:31:26;;;;;;;1.87;1.53;;;;;;;4.22;100.00;152447.00;4988311;28;20531;-85
2023/11/12 01:33:52;;;;;;;2.57;1.80;;;;;;;4.23;100.00;152450.88;4968383;28;20809;-86
2023/11/12 01:36:19;;;;;;;2.27;1.80;;;;;;;4.25;100.00;152456.03;4970008;28;20482;-86
2023/11/12 01:38:46;;;;;;;4.90;2.00;;;;;;;4.27;100.00;152459.88;4968508;28;20947;-86
2023/11/12 01:41:13;;;;;;;1.97;1.37;;;;;;;4.28;100.00;152463.75;4985815;28;20560;-86
2023/11/12 01:43:39;;;;;;;2.20;1.77;;;;;;;4.28;100.00;152463.75;4951688;28;20481;-85
2023/11/12 01:46:08;;;;;;;2.43;1.60;;;;;;;4.29;100.00;152466.31;4983602;28;20844;-86
2023/11/12 01:48:36;;;;;;;2.10;1.67;;;;;;;4.31;100.00;152470.19;4979847;28;20477;-86
2023/11/12 01:51:04;;;;;;;2.20;1.63;;;;;;;4.30;100.00;152468.91;4967401;28;20488;-86
2023/11/12 01:53:32;;;;;;;2.03;1.40;;;;;;;4.31;100.00;152471.44;4991080;28;20464;-86
2023/11/12 01:55:59;;;;;;;2.20;1.60;;;;;;;4.33;100.00;152475.34;4985204;28;20496;-86
2023/11/12 01:58:25;;;;;;;3.10;1.70;;;;;;;4.35;100.00;152479.19;4982842;28;20465;-86
2023/11/12 02:00:52;;;;;;;2.40;1.90;;;;;;;4.37;100.00;152485.63;4971629;28;20466;-85
2023/11/12 02:03:21;;;;;;;2.00;1.53;;;;;;;4.38;100.00;152486.91;4983327;28;20532;-86
2023/11/12 02:05:49;;;;;;;2.13;1.67;;;;;;;4.39;100.00;152490.81;4984301;28;20451;-86
2023/11/12 02:08:15;;;;;;;1.97;1.70;;;;;;;4.38;100.00;152488.22;4984479;28;20991;-85
2023/11/12 02:10:48;;;;;;;1.83;1.40;;;;;;;4.39;100.00;152490.81;4968573;28;20454;-86
2023/11/12 02:13:14;;;;;;;5.00;1.60;;;;;;;4.40;100.00;152493.34;4972445;28;20536;-86
2023/11/12 02:15:42;;;;;;;3.20;1.80;;;;;;;4.40;100.00;152493.34;4971459;28;20520;-86
2023/11/12 02:18:10;;;;;;;3.50;1.50;;;;;;;4.41;100.00;152495.94;4961446;28;20457;-86
2023/11/12 02:20:44;;;;;;;1.63;1.43;;;;;;;4.42;100.00;152498.50;4965584;28;20461;-85
2023/11/12 02:23:12;;;;;;;2.03;1.77;;;;;;;4.42;100.00;152498.50;4970500;28;20539;-85
2023/11/12 02:25:42;;;;;;;3.60;1.70;;;;;;;4.45;100.00;152504.97;4967160;28;20523;-86
2023/11/12 02:28:10;;;;;;;2.50;1.63;;;;;;;4.44;100.00;152503.69;4980243;28;20469;-86
2023/11/12 02:30:37;;;;;;;1.90;1.70;;;;;;;4.44;100.00;152503.69;4989752;28;20445;-86
2023/11/12 02:33:04;;;;;;;1.83;1.40;;;;;;;4.45;100.00;152506.22;4983904;28;20876;-85
2023/11/12 02:35:32;;;;;;;3.17;1.63;;;;;;;4.45;100.00;152506.22;4982222;28;20485;-86
2023/11/12 02:37:59;;;;;;;1.97;1.20;;;;;;;4.46;100.00;152508.81;4970289;28;20654;-86
2023/11/12 02:40:25;;;;;;;2.30;1.80;;;;;;;4.47;100.00;152511.41;4984498;28;20983;-86
2023/11/12 02:42:53;;;;;;;1.70;1.30;;;;;;;4.47;100.00;152511.41;4954990;28;20469;-85
2023/11/12 02:45:20;;;;;;;1.70;1.47;;;;;;;4.49;100.00;152516.56;4967994;28;20477;-86
2023/11/12 02:47:47;;;;;;;1.73;1.00;;;;;;;4.48;100.00;152513.97;4988285;28;20551;-86
2023/11/12 02:50:25;;;;;;;2.53;1.27;;;;;;;4.48;100.00;152513.97;4970100;28;20477;-85
2023/11/12 02:52:52;;;;;;;1.60;1.13;;;;;;;4.45;100.00;152506.22;4969414;28;20461;-86
2023/11/12 02:55:19;;;;;;;1.87;1.30;;;;;;;4.41;100.00;152495.94;4963114;28;20481;-86
2023/11/12 02:57:45;;;;;;;1.33;1.00;;;;;;;4.35;100.00;152480.47;4965482;28;20895;-86
2023/11/12 03:00:15;;;;;;;2.90;1.10;;;;;;;4.27;100.00;152459.88;4975596;28;21008;-86
2023/11/12 03:02:41;;;;;;;1.90;1.30;;;;;;;4.18;100.00;152436.72;4983503;28;20464;-86
2023/11/12 03:05:09;;;;;;;1.90;1.40;;;;;;;4.10;100.00;152417.34;4984174;28;20550;-84
2023/11/12 03:07:35;;;;;;;1.97;1.40;;;;;;;4.03;100.00;152398.03;4970359;28;20465;-85
2023/11/12 03:10:04;;;;;;;1.60;1.20;;;;;;;3.99;100.00;152387.75;4980559;28;21003;-84
2023/11/12 03:12:31;;;;;;;1.50;1.17;;;;;;;3.94;100.00;152376.19;4959073;28;20472;-84
2023/11/12 03:14:58;;;;;;;2.90;1.17;;;;;;;3.92;100.00;152369.75;4969276;28;20480;-85
2023/11/12 03:17:26;;;;;;;2.17;1.43;;;;;;;3.86;100.00;152354.28;4973098;28;20555;-85
2023/11/12 03:19:52;;;;;;;1.90;1.13;;;;;;;3.81;100.00;152341.41;4971823;28;20461;-85
2023/11/12 03:22:21;;;;;;;1.53;1.17;;;;;;;3.74;100.00;152323.34;4970813;28;20454;-84
2023/11/12 03:24:48;;;;;;;1.53;1.20;;;;;;;3.69;100.00;152311.78;4972476;28;20457;-85
2023/11/12 03:27:14;;;;;;;2.43;1.30;;;;;;;3.65;100.00;152302.75;4972052;28;20449;-86
2023/11/12 03:29:41;;;;;;;2.40;1.17;;;;;;;3.65;100.00;152302.75;4998049;28;20448;-86
2023/11/12 03:32:07;;;;;;;2.37;1.40;;;;;;;3.65;100.00;152302.75;4965132;28;20453;-86
2023/11/12 03:34:35;;;;;;;1.77;1.63;;;;;;;3.65;100.00;152301.50;4975232;28;20511;-86
2023/11/12 03:37:02;;;;;;;1.97;1.63;;;;;;;3.64;100.00;152300.22;4989662;28;20485;-86
2023/11/12 03:39:28;;;;;;;1.97;1.80;;;;;;;3.62;100.00;152295.06;4978077;28;20438;-86
2023/11/12 03:41:56;;;;;;;1.93;1.67;;;;;;;3.61;100.00;152292.47;4955096;28;20445;-86
2023/11/12 03:44:23;;;;;;;1.70;1.60;;;;;;;3.60;100.00;152289.88;4980829;28;20545;-86
2023/11/12 03:46:49;;;;;;;3.60;1.70;;;;;;;3.51;100.00;152266.75;4996039;28;20900;-85
2023/11/12 03:49:16;;;;;;;1.90;1.70;;;;;;;3.46;100.00;152253.88;5002865;28;20492;-85
2023/11/12 03:51:44;;;;;;;2.17;1.57;;;;;;;3.46;100.00;152253.88;4997008;28;20448;-85
2023/11/12 03:54:11;;;;;;;2.00;1.10;;;;;;;3.42;100.00;152243.56;4990524;28;20524;-86
2023/11/12 03:56:38;;;;;;;2.13;1.60;;;;;;;3.40;100.00;152238.41;4974315;28;20477;-86
2023/11/12 03:59:04;;;;;;;1.97;1.77;;;;;;;3.36;100.00;152228.09;4990845;28;20446;-86
2023/11/12 04:01:31;;;;;;;2.97;1.93;;;;;;;3.35;100.00;152225.56;4993212;28;20493;-87
2023/11/12 04:03:57;;;;;;;2.83;2.07;;;;;;;3.35;100.00;152225.56;4986451;28;20457;-86
2023/11/12 04:06:24;;;;;;;3.83;2.00;;;;;;;3.36;100.00;152228.09;4976178;28;20488;-86
2023/11/12 04:08:52;;;;;;;2.93;1.73;;;;;;;3.34;100.00;152222.97;4990966;28;20445;-85
2023/11/12 04:11:19;;;;;;;3.00;1.90;;;;;;;3.33;100.00;152220.41;4970618;28;20510;-85
2023/11/12 04:13:45;;;;;;;2.53;1.60;;;;;;;3.31;100.00;152215.22;4967806;28;20789;-85
2023/11/12 04:16:12;;;;;;;2.20;2.00;;;;;;;3.28;100.00;152207.56;4989138;28;20492;-86
2023/11/12 04:18:38;;;;;;;4.10;1.70;;;;;;;3.29;100.00;152210.09;4985096;28;20449;-85
2023/11/12 04:21:06;;;;;;;2.50;1.80;;;;;;;3.29;100.00;152210.09;4990843;28;20459;-85
2023/11/12 04:23:32;;;;;;;2.60;1.83;;;;;;;3.29;100.00;152208.81;4968798;28;20441;-85
2023/11/12 04:26:00;;;;;;;3.20;2.30;;;;;;;3.28;100.00;152206.25;5000972;28;20449;-85
2023/11/12 04:28:28;;;;;;;3.00;1.80;;;;;;;3.29;100.00;152210.09;4973820;28;20987;-86
2023/11/12 04:30:56;;;;;;;3.20;2.30;;;;;;;3.28;100.00;152206.25;4979887;28;20461;-86
2023/11/12 04:33:22;;;;;;;3.87;2.67;;;;;;;3.29;100.00;152208.81;4958193;28;20438;-86
2023/11/12 04:35:52;;;;;;;3.17;2.10;;;;;;;3.31;100.00;152215.22;4966310;28;20840;-85
2023/11/12 04:38:20;;;;;;;3.53;2.70;;;;;;;3.34;100.00;152222.97;4977571;28;20465;-85
2023/11/12 04:40:48;;;;;;;3.17;2.60;;;;;;;3.39;100.00;152234.59;4974944;28;20449;-85
2023/11/12 04:43:16;;;;;;;4.20;3.07;;;;;;;3.36;100.00;152226.84;4973734;28;20449;-85
2023/11/12 04:45:44;;;;;;;3.30;2.80;;;;;;;3.31;100.00;152215.22;4995807;28;20806;-85
2023/11/12 04:48:11;;;;;;;4.30;3.80;;;;;;;3.30;100.00;152211.41;4996477;28;20452;-85
2023/11/12 04:50:38;;;;;;;4.50;4.10;;;;;;;3.37;100.00;152230.69;4984256;28;21242;-85
2023/11/12 04:53:04;;;;;;;5.33;4.40;;;;;;;3.40;100.00;152238.41;4956886;28;20534;-86
2023/11/12 04:55:31;;;;;;;6.17;5.00;;;;;;;3.41;100.00;152239.72;4980587;28;20487;-85
2023/11/12 04:57:58;;;;;;;6.00;4.43;;;;;;;3.41;100.00;152241.00;5011915;28;20498;-85
2023/11/12 05:00:26;;;;;;;6.03;4.80;;;;;;;3.34;100.00;152222.97;4973886;28;20903;-85
2023/11/12 05:02:52;;;;;;;5.23;4.30;;;;;;;3.28;100.00;152206.25;4968075;28;20461;-85
2023/11/12 05:05:19;;;;;;;5.00;4.40;;;;;;;3.28;100.00;152207.56;4972631;28;20556;-85
2023/11/12 05:07:46;;;;;;;5.77;4.80;;;;;;;3.30;100.00;152211.41;4994264;28;20932;-86
2023/11/12 05:10:13;;;;;;;5.60;4.80;;;;;;;3.27;100.00;152203.66;4990297;28;20452;-85
2023/11/12 05:12:47;;;;;;;5.60;5.00;;;;;;;3.25;100.00;152199.81;4998329;28;20748;-87
2023/11/12 05:15:13;;;;;;;6.90;5.17;;;;;;;3.22;100.00;152192.09;4983501;28;20468;-86
2023/11/12 05:17:41;;;;;;;7.67;5.93;;;;;;;3.20;100.00;152186.97;4998059;28;20836;-86
2023/11/12 05:20:09;;;;;;;6.30;5.70;;;;;;;3.21;100.00;152189.50;4975621;28;20869;-86
2023/11/12 05:22:35;;;;;;;7.83;6.47;;;;;;;3.19;100.00;152184.38;4986832;28;20473;-86
2023/11/12 05:25:02;;;;;;;8.07;6.37;;;;;;;3.18;100.00;152180.53;4987900;28;20469;-85
2023/11/12 05:27:29;;;;;;;7.07;5.70;;;;;;;3.18;100.00;152180.53;4968910;28;20814;-86
2023/11/12 05:29:55;;;;;;;6.30;5.50;;;;;;;3.15;100.00;152174.03;4971794;28;20461;-86
2023/11/12 05:32:22;;;;;;;7.23;5.90;;;;;;;3.13;100.00;152168.91;4972581;28;20456;-86
2023/11/12 05:34:50;;;;;;;6.97;6.27;;;;;;;3.13;100.00;152168.91;4968947;28;20849;-86
2023/11/12 05:37:17;;;;;;;8.00;5.97;;;;;;;3.13;100.00;152167.63;4965184;28;20481;-86
2023/11/12 05:39:44;;;;;;;7.20;5.73;;;;;;;3.12;100.00;152166.38;4989746;28;20460;-85
2023/11/12 05:42:10;;;;;;;7.47;6.77;;;;;;;3.12;100.00;152166.38;4986366;28;20457;-86
2023/11/12 05:44:37;;;;;;;6.77;5.80;;;;;;;3.11;100.00;152163.78;4968148;28;21052;-85
2023/11/12 05:47:04;;;;;;;7.23;5.63;;;;;;;3.09;100.00;152158.66;4985081;28;20461;-85
2023/11/12 05:49:31;;;;;;;7.60;6.30;;;;;;;3.06;100.00;152152.22;4981779;28;20484;-86
2023/11/12 05:51:58;;;;;;;7.23;5.90;;;;;;;3.04;100.00;152147.03;4968849;28;21128;-86
2023/11/12 05:54:25;;;;;;;7.23;5.60;;;;;;;3.02;100.00;152141.91;4948711;28;20558;-86
2023/11/12 05:56:52;;;;;;;7.53;6.30;;;;;;;3.01;100.00;152138.06;4967899;28;21126;-86
2023/11/12 05:59:18;;;;;;;7.63;5.90;;;;;;;3.01;100.00;152139.34;4969320;28;20476;-86
2023/11/12 06:01:44;;;;;;;6.03;5.43;;;;;;;3.00;100.00;152136.75;4963497;28;20988;-85
2023/11/12 06:04:11;;;;;;;6.60;5.57;;;;;;;3.00;100.00;152135.47;4983393;28;20462;-86
2023/11/12 06:06:39;;;;;;;7.47;5.50;;;;;;;2.98;100.00;152131.63;4980186;28;20828;-86
2023/11/12 06:09:07;;;;;;;6.33;5.40;;;;;;;2.98;100.00;152130.31;4982833;28;20453;-86
2023/11/12 06:11:36;;;;;;;6.63;4.70;;;;;;;2.96;100.00;152125.19;4984011;28;20457;-86
2023/11/12 06:14:03;;;;;;;6.20;5.00;;;;;;;2.94;100.00;152121.31;4984861;28;20461;-86
2023/11/12 06:16:29;;;;;;;5.90;5.20;;;;;;;2.92;100.00;152116.16;4969519;28;20489;-86
2023/11/12 06:18:56;;;;;;;6.43;4.40;;;;;;;2.91;100.00;152112.34;4965672;28;20450;-86
2023/11/12 06:21:23;;;;;;;4.77;3.90;;;;;;;2.93;100.00;152117.47;4979586;28;20856;-86
2023/11/12 06:23:49;;;;;;;5.03;4.20;;;;;;;2.94;100.00;152121.31;4964377;28;20457;-86
2023/11/12 06:26:19;;;;;;;6.17;3.80;;;;;;;2.93;100.00;152118.75;4960301;28;20864;-86
2023/11/12 06:28:46;;;;;;;4.50;3.47;;;;;;;2.94;100.00;152120.00;4980653;28;20463;-86
2023/11/12 06:31:12;;;;;;;4.13;3.50;;;;;;;2.94;100.00;152121.31;4980942;28;20547;-85
2023/11/12 06:33:39;;;;;;;3.87;3.50;;;;;;;2.94;100.00;152120.00;4981029;28;20465;-86
2023/11/12 06:36:06;;;;;;;3.77;3.30;;;;;;;2.93;100.00;152118.75;4963550;28;20924;-85
2023/11/12 06:38:33;;;;;;;4.20;3.60;;;;;;;2.94;100.00;152120.00;4961709;28;20465;-85
2023/11/12 06:40:59;;;;;;;3.33;2.87;;;;;;;2.92;100.00;152114.88;4981635;28;20476;-86
2023/11/12 06:43:27;;;;;;;5.77;3.27;;;;;;;2.91;100.00;152112.34;4978559;28;20461;-85
2023/11/12 06:45:54;;;;;;;3.70;3.23;;;;;;;2.92;100.00;152114.88;4972760;28;20461;-86
2023/11/12 06:48:20;;;;;;;3.67;3.00;;;;;;;2.94;100.00;152120.00;4978329;28;20458;-85
2023/11/12 06:50:47;;;;;;;4.30;3.80;;;;;;;2.93;100.00;152117.47;4984166;28;21043;-86
2023/11/12 06:53:14;;;;;;;6.00;3.80;;;;;;;2.93;100.00;152117.47;4982759;28;20457;-85
2023/11/12 06:55:40;;;;;;;5.20;3.60;;;;;;;2.94;100.00;152121.31;4983974;28;20460;-86
2023/11/12 06:58:07;;;;;;;4.40;3.63;;;;;;;2.96;100.00;152125.19;4986334;28;20485;-85
2023/11/12 07:00:34;;;;;;;4.73;4.00;;;;;;;2.94;100.00;152120.00;4977527;28;20465;-87
2023/11/12 07:03:01;;;;;;;4.10;3.40;;;;;;;2.97;100.00;152127.75;4980673;28;20525;-85
2023/11/12 07:05:30;;;;;;;4.30;2.70;;;;;;;2.97;100.00;152127.75;4965611;28;20825;-85
2023/11/12 07:07:56;;;;;;;3.93;3.53;;;;;;;2.99;100.00;152134.16;4982832;28;20449;-85
2023/11/12 07:10:23;;;;;;;3.73;3.27;;;;;;;3.02;100.00;152140.59;4978397;28;20536;-86
2023/11/12 07:12:50;;;;;;;4.27;2.80;;;;;;;3.02;100.00;152140.59;4988933;28;20488;-85
2023/11/12 07:15:16;;;;;;;3.90;3.20;;;;;;;3.03;100.00;152143.19;4988696;28;20453;-85
2023/11/12 07:17:47;;;;;;;4.37;3.23;;;;;;;3.05;100.00;152149.63;4968201;28;20485;-85
2023/11/12 07:20:14;;;;;;;4.10;2.97;;;;;;;3.05;100.00;152148.31;4964331;28;20442;-86
2023/11/12 07:22:42;;;;;;;3.90;2.97;;;;;;;3.07;100.00;152153.50;4980861;28;20457;-86
2023/11/12 07:25:09;;;;;;;4.27;3.07;;;;;;;3.06;100.00;152150.91;4963616;28;20445;-86
2023/11/12 07:27:36;;;;;;;7.40;2.80;;;;;;;3.10;100.00;152161.19;4962943;28;20445;-86
2023/11/12 07:30:04;;;;;;;4.40;3.70;;;;;;;3.14;100.00;152170.22;4963755;28;20996;-86
2023/11/12 07:32:30;;;;;;;6.20;4.03;;;;;;;3.15;100.00;152174.03;4981961;28;20457;-85
2023/11/12 07:34:59;;;;;;;4.03;3.23;;;;;;;3.17;100.00;152177.94;4970528;28;20473;-85
2023/11/12 07:37:25;;;;;;;4.30;3.90;;;;;;;3.19;100.00;152184.38;5000485;28;20512;-85
2023/11/12 07:39:52;;;;;;;3.83;3.43;;;;;;;3.21;100.00;152189.50;4979509;28;20578;-85
2023/11/12 07:42:19;;;;;;;5.17;3.47;;;;;;;3.23;100.00;152194.63;4963797;28;20468;-86
2023/11/12 07:44:46;;;;;;;6.10;3.90;;;;;;;3.27;100.00;152204.97;4949717;28;20544;-86
2023/11/12 07:47:12;;;;;;;6.20;3.80;;;;;;;3.30;100.00;152212.69;4963652;28;20454;-86
2023/11/12 07:49:39;;;;;;;4.43;3.63;;;;;;;3.33;100.00;152220.41;4982766;28;20473;-86
2023/11/12 07:52:07;;;;;;;3.90;3.30;;;;;;;3.36;100.00;152228.09;4980099;28;20476;-85
2023/11/12 07:54:34;;;;;;;4.63;3.00;;;;;;;3.38;100.00;152232.00;4967889;28;20454;-86
2023/11/12 07:57:01;;;;;;;4.87;3.80;;;;;;;3.40;100.00;152238.41;4983540;28;20512;-86
2023/11/12 07:59:29;;;;;;;4.07;3.50;;;;;;;3.42;100.00;152243.56;4987173;28;20461;-86
2023/11/12 08:01:55;;;;;;;3.83;3.10;;;;;;;3.42;100.00;152243.56;4975053;28;20476;-86
2023/11/12 08:04:22;;;;;;;4.50;3.60;;;;;;;3.44;100.00;152248.69;4970123;28;20457;-86
2023/11/12 08:06:49;;;;;;;5.77;4.27;;;;;;;3.45;100.00;152250.00;4985847;28;20453;-86
2023/11/12 08:09:17;;;;;;;4.70;4.20;;;;;;;3.45;100.00;152251.28;4981243;28;20464;-86
2023/11/12 08:11:43;;;;;;;7.00;5.23;;;;;;;3.48;100.00;152259.00;4981575;28;20812;-86
2023/11/12 08:14:10;;;;;;;4.63;3.83;;;;;;;3.50;100.00;152264.16;4969802;28;20461;-86
2023/11/12 08:16:37;;;;;;;4.70;4.30;;;;;;;3.53;100.00;152271.88;4988563;28;20496;-86
2023/11/12 08:19:04;;;;;;;6.00;4.60;;;;;;;3.56;100.00;152279.63;4986351;28;20458;-85
2023/11/12 08:21:30;;;;;;;5.80;4.50;;;;;;;3.58;100.00;152284.75;4987294;28;20516;-85
2023/11/12 08:23:58;;;;;;;5.40;4.37;;;;;;;3.61;100.00;152291.19;4963272;28;20503;-85
2023/11/12 08:26:27;;;;;;;6.13;4.93;;;;;;;3.64;100.00;152300.22;4981492;28;20461;-86
2023/11/12 08:28:56;;;;;;;5.60;4.97;;;;;;;3.68;100.00;152309.19;4953803;28;20461;-85
2023/11/12 08:31:23;;;;;;;6.83;4.70;;;;;;;3.71;100.00;152316.91;4981398;28;20970;-86
2023/11/12 08:33:49;;;;;;;5.40;3.90;;;;;;;3.73;100.00;152322.13;4962643;28;20560;-86
2023/11/12 08:36:16;;;;;;;5.20;4.43;;;;;;;3.79;100.00;152336.22;4983860;28;20453;-85
2023/11/12 08:38:43;;;;;;;5.43;4.73;;;;;;;3.90;100.00;152364.56;4986906;28;20468;-86
2023/11/12 08:41:11;;;;;;;5.30;4.53;;;;;;;3.94;100.00;152374.88;4987653;28;20557;-86
2023/11/12 08:43:39;;;;;;;4.80;4.30;;;;;;;4.04;100.00;152400.63;4983421;28;20456;-86
2023/11/12 08:46:06;;;;;;;6.07;4.27;;;;;;;4.14;100.00;152426.38;4984330;28;20838;-86
2023/11/12 08:48:34;;;;;;;5.23;4.40;;;;;;;4.27;100.00;152459.88;4984011;28;20453;-86
2023/11/12 08:51:02;;;;;;;5.50;4.40;;;;;;;4.36;100.00;152483.06;4966927;28;20840;-86
2023/11/12 08:53:28;;;;;;;5.87;4.53;;;;;;;4.44;100.00;152503.69;4968592;28;20453;-86
2023/11/12 08:55:55;;;;;;;4.90;4.00;;;;;;;4.49;100.00;152515.25;4988697;28;20807;-85
2023/11/12 08:58:23;;;;;;;4.10;3.50;;;;;;;4.57;100.00;152537.19;4985136;28;20488;-85
2023/11/12 09:00:51;;;;;;;4.93;4.30;;;;;;;4.68;100.00;152565.53;4961888;28;20485;-85
2023/11/12 09:03:17;;;;;;;5.97;5.07;;;;;;;4.75;100.00;152583.56;4984995;28;20450;-86
2023/11/12 09:05:44;;;;;;;7.10;4.33;;;;;;;4.80;100.00;152596.44;4968528;28;20468;-86
2023/11/12 09:08:11;;;;;;;4.20;3.80;;;;;;;4.82;100.00;152601.56;4965167;28;20972;-85
2023/11/12 09:10:37;;;;;;;6.10;4.57;;;;;;;4.84;100.00;152606.72;4967503;28;20536;-86
2023/11/12 09:13:04;;;;;;;4.80;4.27;;;;;;;4.86;100.00;152611.91;4984797;28;20519;-85
2023/11/12 09:15:32;;;;;;;5.47;4.90;;;;;;;4.89;100.00;152619.66;4984143;28;20450;-85
2023/11/12 09:18:00;;;;;;;7.30;4.77;;;;;;;4.86;100.00;152610.63;4986928;28;20482;-85
2023/11/12 09:20:27;;;;;;;5.93;3.83;;;;;;;4.85;100.00;152609.31;4985614;28;21219;-85
2023/11/12 09:22:54;;;;;;;4.07;3.50;;;;;;;4.83;100.00;152604.16;4986146;28;20457;-85
2023/11/12 09:25:20;;;;;;;4.87;4.23;;;;;;;4.85;100.00;152609.31;4985772;28;20444;-85
2023/11/12 09:27:47;;;;;;;7.07;5.60;;;;;;;4.86;100.00;152610.63;4978014;28;20481;-84
2023/11/12 09:30:14;;;;;;;5.17;4.20;;;;;;;4.82;100.00;152601.56;4972324;28;20970;-85
2023/11/12 09:32:41;;;;;;;6.20;4.80;;;;;;;4.81;100.00;152599.03;4964279;28;20466;-86
2023/11/12 09:35:10;;;;;;;4.43;4.03;;;;;;;4.80;100.00;152596.44;4967764;28;20465;-85
2023/11/12 09:37:37;;;;;;;5.70;3.97;;;;;;;4.81;100.00;152599.03;4981244;28;20515;-85
2023/11/12 09:40:07;;;;;;;4.03;3.60;;;;;;;4.84;100.00;152605.47;4980544;28;20946;-86
2023/11/12 09:42:38;;;;;;;6.60;3.53;;;;;;;4.82;100.00;152600.28;4967724;28;20449;-85
2023/11/12 09:45:11;;;;;;;4.47;3.50;;;;;;;4.81;100.00;152599.03;4983682;28;20458;-86
2023/11/12 09:47:44;;;;;;;6.50;3.53;;;;;;;4.82;100.00;152601.56;4987713;28;20458;-85
2023/11/12 09:50:12;;;;;;;5.57;4.50;;;;;;;4.82;100.00;152601.56;4970282;28;20481;-85
2023/11/12 09:52:39;;;;;;;5.13;3.83;;;;;;;4.84;100.00;152606.72;4988042;28;20966;-85
2023/11/12 09:55:07;;;;;;;5.43;3.80;;;;;;;4.87;100.00;152613.22;4986836;28;20454;-85
2023/11/12 09:57:33;;;;;;;4.47;3.73;;;;;;;4.89;100.00;152619.66;4988739;28;20517;-86
2023/11/12 10:00:00;;;;;;;6.20;3.50;;;;;;;4.92;100.00;152627.34;4988501;28;20520;-85
2023/11/12 10:02:28;;;;;;;4.20;3.80;;;;;;;4.97;100.00;152638.97;4981611;28;20564;-85
2023/11/12 10:04:58;;;;;;;5.13;3.90;;;;;;;5.02;100.00;152650.56;4950491;28;20631;-85
2023/11/12 10:07:26;;;;;;;4.60;3.90;;;;;;;5.06;100.00;152662.16;4984945;28;20469;-84
2023/11/12 10:09:54;;;;;;;6.17;4.20;;;;;;;5.06;100.00;152662.16;4986375;28;20457;-86
2023/11/12 10:12:20;;;;;;;6.43;4.13;;;;;;;5.13;100.00;152678.94;4988685;28;20473;-85
2023/11/12 10:14:47;;;;;;;4.13;3.47;;;;;;;5.16;100.00;152686.66;4981344;28;20464;-85
2023/11/12 10:17:14;;;;;;;4.33;3.73;;;;;;;5.21;100.00;152699.56;4982450;28;20959;-86
2023/11/12 10:19:51;;;;;;;6.00;3.60;;;;;;;5.23;100.00;152706.00;4981826;28;20462;-85
2023/11/12 10:22:17;;;;;;;4.70;4.13;;;;;;;5.27;100.00;152716.28;4968873;28;20457;-85
2023/11/12 10:24:49;;;;;;;4.43;3.57;;;;;;;5.31;100.00;152725.31;4992252;28;20462;-86
2023/11/12 10:27:16;;;;;;;5.40;4.33;;;;;;;5.35;100.00;152736.91;4996430;28;20465;-85
2023/11/12 10:29:43;;;;;;;5.40;4.30;;;;;;;5.37;100.00;152742.09;4987293;28;20462;-86
2023/11/12 10:32:25;;;;;;;5.60;4.30;;;;;;;5.36;100.00;152739.50;4964155;28;20458;-85
2023/11/12 10:34:52;;;;;;;5.53;3.87;;;;;;;5.40;100.00;152748.56;4982901;28;20453;-85
2023/11/12 10:37:19;;;;;;;4.80;3.93;;;;;;;5.43;100.00;152756.25;4962122;28;22440;-85
2023/11/12 10:39:49;;;;;;;5.10;4.20;;;;;;;5.47;100.00;152766.59;4964958;28;20886;-84
2023/11/12 10:42:20;;;;;;;5.00;3.87;;;;;;;5.51;100.00;152776.88;4960524;28;20596;-84
2023/11/12 10:44:48;;;;;;;5.20;4.20;;;;;;;5.54;100.00;152785.91;4964226;28;20492;-84
2023/11/12 10:47:17;;;;;;;7.90;4.50;;;;;;;5.59;100.00;152796.25;4968014;28;20816;-84
2023/11/12 10:49:47;;;;;;;5.63;4.10;;;;;;;5.64;100.00;152809.16;4966958;28;20559;-85
2023/11/12 10:52:15;;;;;;;5.13;3.63;;;;;;;5.66;100.00;152814.28;4978891;28;20466;-85
2023/11/12 10:54:42;;;;;;;4.40;3.57;;;;;;;5.66;100.00;152814.28;4980622;28;20964;-86
2023/11/12 10:57:10;;;;;;;4.10;3.70;;;;;;;5.69;100.00;152823.34;4962759;28;20457;-85
2023/11/12 10:59:42;;;;;;;4.40;3.60;;;;;;;5.72;100.00;152829.78;4978668;28;20466;-85
2023/11/12 11:02:18;;;;;;;4.57;4.17;;;;;;;5.73;100.00;152833.63;4981292;28;20456;-85
2023/11/12 11:07:26;;;;;;;4.70;4.13;;;;;;;5.78;100.00;152846.53;4968745;28;20830;-84
2023/11/12 11:09:53;;;;;;;8.23;4.80;;;;;;;5.81;100.00;152852.97;4962351;28;20576;-84
2023/11/12 11:12:22;;;;;;;9.87;7.20;;;;;;;5.84;100.00;152862.00;4981442;28;20488;-85
2023/11/12 11:14:48;;;;;;;6.63;5.23;;;;;;;5.86;100.00;152867.22;4984970;28;20461;-85
2023/11/12 11:17:36;;;;;;;6.87;4.83;;;;;;;5.88;100.00;152872.34;4983992;28;20445;-84
2023/11/12 11:20:04;;;;;;;6.57;4.67;;;;;;;5.89;100.00;152874.97;4983567;28;20485;-84
2023/11/12 11:22:32;;;;;;;5.23;4.73;;;;;;;5.90;100.00;152877.56;4961033;28;20449;-85
2023/11/12 11:25:02;;;;;;;4.50;4.10;;;;;;;5.93;100.00;152884.00;4984078;28;20461;-84
2023/11/12 11:27:31;;;;;;;4.73;4.20;;;;;;;5.93;100.00;152885.25;4983091;28;21058;-85